Time;durP1;ratioP1;P1;durP2;ratioP2;P2;SDS_P1;SDS_P2;PMS_P1;PMS_P2;Temp;Humidity;BMP_temperature;BMP_pressure;BME280_temperature;BME280_humidity;BME280_pressure;Samples;Min_cycle;Max_cycle;Signal;HPM_P1;HPM_P2
2022/03/31 00:01:21;;;;;;;5.78;4.05;;;;;;;;;;4967058;28;20046;-78
2022/03/31 00:03:47;;;;;;;5.68;3.90;;;;;;;;;;4967536;28;20031;-79
2022/03/31 00:06:12;;;;;;;6.10;4.38;;;;;;;;;;4961243;28;20455;-81
2022/03/31 00:08:38;;;;;;;5.88;4.10;;;;;;;;;;4980916;28;20118;-82
2022/03/31 00:11:04;;;;;;;7.28;4.00;;;;;;;;;;4964797;28;20297;-78
2022/03/31 00:13:30;;;;;;;6.47;4.20;;;;;;;;;;4961565;28;20065;-77
2022/03/31 00:15:58;;;;;;;6.28;3.92;;;;;;;;;;4976957;28;20034;-79
2022/03/31 00:18:24;;;;;;;5.72;3.90;;;;;;;;;;4964932;28;20462;-78
2022/03/31 00:34:17;;;;;;;8.57;3.83;;;;;;;;;;4970029;28;20074;-79
2022/03/31 00:36:52;;;;;;;6.38;4.18;;;;;;;;;;4964884;28;20019;-79
2022/03/31 00:39:29;;;;;;;6.97;3.50;;;;;;;;;;4966206;28;20065;-77
2022/03/31 00:41:55;;;;;;;7.65;4.13;;;;;;;;;;4964483;28;20038;-82
2022/03/31 00:44:21;;;;;;;6.20;4.30;;;;;;;;;;4964763;28;21855;-79
2022/03/31 00:46:52;;;;;;;7.50;4.60;;;;;;;;;;4966359;28;20035;-77
2022/03/31 00:49:22;;;;;;;6.82;4.50;;;;;;;;;;4970464;28;20030;-82
2022/03/31 00:51:52;;;;;;;6.38;3.75;;;;;;;;;;4968407;28;20771;-77
2022/03/31 00:54:20;;;;;;;6.97;4.22;;;;;;;;;;4962266;28;20085;-80
2022/03/31 00:56:49;;;;;;;5.40;3.78;;;;;;;;;;4960757;28;20087;-80
2022/03/31 00:59:15;;;;;;;6.35;4.00;;;;;;;;;;4964023;28;20509;-80
2022/03/31 01:01:43;;;;;;;7.13;4.20;;;;;;;;;;4970974;28;20034;-78
2022/03/31 01:04:09;;;;;;;6.25;4.20;;;;;;;;;;4967810;28;20030;-77
2022/03/31 01:06:34;;;;;;;6.18;3.90;;;;;;;;;;4968437;28;20500;-81
2022/03/31 01:09:01;;;;;;;6.22;3.75;;;;;;;;;;4963188;28;20034;-77
2022/03/31 01:11:29;;;;;;;6.55;4.00;;;;;;;;;;4966471;28;20042;-80
2022/03/31 01:13:55;;;;;;;6.47;4.07;;;;;;;;;;4968038;28;20064;-78
2022/03/31 01:16:21;;;;;;;5.90;4.22;;;;;;;;;;4967332;28;20035;-80
2022/03/31 01:18:47;;;;;;;6.43;3.70;;;;;;;;;;4969754;28;20497;-81
2022/03/31 01:21:13;;;;;;;6.05;4.00;;;;;;;;;;4969794;28;20034;-79
2022/03/31 01:23:38;;;;;;;6.57;4.35;;;;;;;;;;4966282;28;20062;-80
2022/03/31 01:26:10;;;;;;;5.88;4.03;;;;;;;;;;4968435;28;20053;-80
2022/03/31 01:28:43;;;;;;;7.65;4.70;;;;;;;;;;4970166;28;20034;-80
2022/03/31 01:31:10;;;;;;;6.65;4.25;;;;;;;;;;4963607;28;20030;-77
2022/03/31 01:33:36;;;;;;;6.25;4.18;;;;;;;;;;4967506;28;20042;-80
2022/03/31 01:36:06;;;;;;;6.63;4.35;;;;;;;;;;4971344;28;20419;-80
2022/03/31 01:38:32;;;;;;;8.27;5.28;;;;;;;;;;4968761;28;20027;-81
2022/03/31 01:40:58;;;;;;;8.25;5.07;;;;;;;;;;4967685;28;20467;-80
2022/03/31 01:43:23;;;;;;;8.88;5.25;;;;;;;;;;4968686;28;20038;-78
2022/03/31 01:45:49;;;;;;;7.20;4.68;;;;;;;;;;4963836;28;20023;-83
2022/03/31 01:48:16;;;;;;;7.88;5.20;;;;;;;;;;4970304;28;20037;-78
2022/03/31 01:50:42;;;;;;;7.38;4.88;;;;;;;;;;4969311;28;20642;-77
2022/03/31 01:53:08;;;;;;;7.22;4.80;;;;;;;;;;4971578;28;20063;-83
2022/03/31 01:55:34;;;;;;;6.80;4.50;;;;;;;;;;4968034;28;20023;-77
2022/03/31 01:57:59;;;;;;;7.43;5.13;;;;;;;;;;4965391;28;20069;-78
2022/03/31 02:00:25;;;;;;;5.90;4.22;;;;;;;;;;4962921;28;21758;-79
2022/03/31 02:02:50;;;;;;;5.05;3.67;;;;;;;;;;4966709;28;20069;-79
2022/03/31 02:05:16;;;;;;;4.22;3.00;;;;;;;;;;4972037;28;20061;-84
2022/03/31 02:07:41;;;;;;;4.00;2.88;;;;;;;;;;4972937;28;20039;-80
2022/03/31 02:10:12;;;;;;;4.80;2.67;;;;;;;;;;4969903;28;20038;-80
2022/03/31 02:12:39;;;;;;;4.53;2.13;;;;;;;;;;4976620;28;20508;-80
2022/03/31 02:15:05;;;;;;;3.25;2.10;;;;;;;;;;4966645;28;20034;-82
2022/03/31 02:17:31;;;;;;;2.88;2.08;;;;;;;;;;4969800;28;20513;-83
2022/03/31 02:19:57;;;;;;;2.85;1.88;;;;;;;;;;4970677;28;20039;-80
2022/03/31 02:22:22;;;;;;;2.60;1.88;;;;;;;;;;4983392;28;20030;-78
2022/03/31 02:24:48;;;;;;;3.15;1.80;;;;;;;;;;4965275;28;20063;-83
2022/03/31 02:27:13;;;;;;;2.60;1.80;;;;;;;;;;4966139;28;20430;-79
2022/03/31 02:29:39;;;;;;;1.95;1.50;;;;;;;;;;4970262;28;20496;-80
2022/03/31 02:32:06;;;;;;;2.10;1.55;;;;;;;;;;4972473;28;20045;-79
2022/03/31 02:34:31;;;;;;;2.13;1.70;;;;;;;;;;4973748;28;20166;-80
2022/03/31 02:36:56;;;;;;;2.28;1.67;;;;;;;;;;4967790;28;20125;-78
2022/03/31 02:39:22;;;;;;;2.38;1.50;;;;;;;;;;4973710;28;20031;-80
2022/03/31 02:41:47;;;;;;;2.00;1.40;;;;;;;;;;4962203;28;20126;-80
2022/03/31 02:44:14;;;;;;;2.13;1.42;;;;;;;;;;4970003;28;20030;-78
2022/03/31 02:46:39;;;;;;;1.92;1.40;;;;;;;;;;4969283;28;20034;-83
2022/03/31 02:49:05;;;;;;;2.13;1.30;;;;;;;;;;4973775;28;20346;-80
2022/03/31 02:51:31;;;;;;;1.80;1.27;;;;;;;;;;4967531;28;20442;-78
2022/03/31 02:56:40;;;;;;;1.83;1.40;;;;;;;;;;4970770;28;20086;-83
2022/03/31 02:59:09;;;;;;;1.83;1.10;;;;;;;;;;4974103;28;20035;-80
2022/03/31 03:01:35;;;;;;;1.85;1.30;;;;;;;;;;4976148;28;20036;-78
2022/03/31 03:04:01;;;;;;;1.55;1.20;;;;;;;;;;4971934;28;20109;-81
2022/03/31 03:06:26;;;;;;;1.60;1.20;;;;;;;;;;4976536;28;20027;-77
2022/03/31 03:08:52;;;;;;;1.35;1.15;;;;;;;;;;4961947;28;20398;-82
2022/03/31 03:11:18;;;;;;;2.00;1.38;;;;;;;;;;4968986;28;20054;-83
2022/03/31 03:13:47;;;;;;;1.75;1.23;;;;;;;;;;4963073;28;20045;-81
2022/03/31 03:16:13;;;;;;;1.50;1.25;;;;;;;;;;4972875;28;20550;-78
2022/03/31 03:18:39;;;;;;;1.38;1.10;;;;;;;;;;4968865;28;20023;-77
2022/03/31 03:21:07;;;;;;;2.13;1.30;;;;;;;;;;4969142;28;20533;-82
2022/03/31 03:23:33;;;;;;;1.80;1.35;;;;;;;;;;4958286;28;20117;-82
2022/03/31 03:25:59;;;;;;;1.60;1.10;;;;;;;;;;4969655;28;20031;-80
2022/03/31 03:28:24;;;;;;;1.88;1.27;;;;;;;;;;4968172;28;20035;-84
2022/03/31 03:30:49;;;;;;;2.05;1.40;;;;;;;;;;4970683;28;20077;-82
2022/03/31 03:33:15;;;;;;;1.90;1.30;;;;;;;;;;4969217;28;20249;-79
2022/03/31 03:35:40;;;;;;;1.83;1.20;;;;;;;;;;4970000;28;20027;-79
2022/03/31 03:38:07;;;;;;;1.88;1.35;;;;;;;;;;4985316;28;20045;-81
2022/03/31 03:40:33;;;;;;;1.90;1.17;;;;;;;;;;4971865;28;20026;-80
2022/03/31 03:42:58;;;;;;;1.50;1.20;;;;;;;;;;4967591;28;20034;-79
2022/03/31 03:45:24;;;;;;;1.88;1.30;;;;;;;;;;4972882;28;20036;-78
2022/03/31 03:47:50;;;;;;;1.83;1.02;;;;;;;;;;4960949;28;20031;-79
2022/03/31 03:50:15;;;;;;;1.75;1.10;;;;;;;;;;4965758;28;20029;-83
2022/03/31 03:52:41;;;;;;;1.92;0.95;;;;;;;;;;4963959;28;20035;-78
2022/03/31 03:55:07;;;;;;;1.60;1.10;;;;;;;;;;4958846;28;20054;-83
2022/03/31 03:57:32;;;;;;;1.20;0.90;;;;;;;;;;4966443;28;20444;-78
2022/03/31 03:59:58;;;;;;;1.63;0.90;;;;;;;;;;4965820;28;20039;-79
2022/03/31 04:02:23;;;;;;;1.45;0.90;;;;;;;;;;4973283;28;20030;-84
2022/03/31 04:04:48;;;;;;;1.55;1.10;;;;;;;;;;4959697;28;20500;-81
2022/03/31 04:07:14;;;;;;;1.30;1.00;;;;;;;;;;4967585;28;20136;-81
2022/03/31 04:09:39;;;;;;;1.30;0.90;;;;;;;;;;4961272;28;20545;-81
2022/03/31 04:12:05;;;;;;;1.02;0.80;;;;;;;;;;4966893;28;20031;-81
2022/03/31 04:14:30;;;;;;;1.95;0.80;;;;;;;;;;4968111;28;20034;-80
2022/03/31 04:16:56;;;;;;;1.88;0.90;;;;;;;;;;4975117;28;20022;-83
2022/03/31 04:19:21;;;;;;;2.90;1.00;;;;;;;;;;4969778;28;20034;-78
2022/03/31 04:21:47;;;;;;;1.63;1.05;;;;;;;;;;4968038;28;20096;-78
2022/03/31 04:24:12;;;;;;;1.20;0.90;;;;;;;;;;4960456;28;20050;-82
2022/03/31 04:26:37;;;;;;;1.20;0.90;;;;;;;;;;4973187;28;20426;-80
2022/03/31 04:29:03;;;;;;;1.67;0.95;;;;;;;;;;4962069;28;20065;-81
2022/03/31 04:31:29;;;;;;;1.10;0.85;;;;;;;;;;4962578;28;20089;-79
2022/03/31 04:33:54;;;;;;;0.82;0.75;;;;;;;;;;4967212;28;20034;-79
2022/03/31 04:36:20;;;;;;;2.03;1.00;;;;;;;;;;4961175;28;20038;-81
2022/03/31 04:38:45;;;;;;;1.80;1.00;;;;;;;;;;4966688;28;20027;-79
2022/03/31 04:41:10;;;;;;;2.15;0.90;;;;;;;;;;4965227;28;20073;-82
2022/03/31 04:43:36;;;;;;;1.50;0.95;;;;;;;;;;4964619;28;20053;-80
2022/03/31 04:46:01;;;;;;;2.05;1.20;;;;;;;;;;4968440;28;20034;-83
2022/03/31 04:48:26;;;;;;;1.48;1.00;;;;;;;;;;4968284;28;20030;-79
2022/03/31 04:50:53;;;;;;;1.30;1.00;;;;;;;;;;4969690;28;20033;-82
2022/03/31 04:53:18;;;;;;;1.50;1.00;;;;;;;;;;4975756;28;20488;-82
2022/03/31 04:55:44;;;;;;;1.33;1.00;;;;;;;;;;4981977;28;20066;-81
2022/03/31 04:58:09;;;;;;;2.17;1.20;;;;;;;;;;4968253;28;20475;-83
2022/03/31 05:00:35;;;;;;;1.55;1.10;;;;;;;;;;4970631;28;20038;-83
2022/03/31 05:03:01;;;;;;;1.48;0.95;;;;;;;;;;4967323;28;20069;-81
2022/03/31 05:05:26;;;;;;;1.35;0.90;;;;;;;;;;4962903;28;20077;-83
2022/03/31 05:07:52;;;;;;;1.25;0.82;;;;;;;;;;4963118;28;20047;-79
2022/03/31 05:10:18;;;;;;;0.85;0.75;;;;;;;;;;4964516;28;20027;-83
2022/03/31 05:12:44;;;;;;;1.20;0.90;;;;;;;;;;4967600;28;20165;-81
2022/03/31 05:15:11;;;;;;;1.58;0.90;;;;;;;;;;4974975;28;20110;-80
2022/03/31 05:17:37;;;;;;;1.20;0.80;;;;;;;;;;4973020;28;20068;-82
2022/03/31 05:20:05;;;;;;;2.00;0.90;;;;;;;;;;4968972;28;20081;-83
2022/03/31 05:22:30;;;;;;;1.58;0.90;;;;;;;;;;4987226;28;20065;-79
2022/03/31 05:24:56;;;;;;;1.35;0.90;;;;;;;;;;4965146;28;20082;-79
2022/03/31 05:27:21;;;;;;;1.67;1.00;;;;;;;;;;4971364;28;20031;-79
2022/03/31 05:29:46;;;;;;;1.80;1.10;;;;;;;;;;4968676;28;20565;-82
2022/03/31 05:32:12;;;;;;;1.90;1.23;;;;;;;;;;4966177;28;20150;-83
2022/03/31 05:34:37;;;;;;;2.22;1.00;;;;;;;;;;4970584;28;20045;-80
2022/03/31 05:37:03;;;;;;;1.77;1.17;;;;;;;;;;4966024;28;20112;-80
2022/03/31 05:39:29;;;;;;;2.88;1.30;;;;;;;;;;4967088;28;20094;-83
2022/03/31 05:41:55;;;;;;;1.50;1.10;;;;;;;;;;4970556;28;20043;-81
2022/03/31 05:44:20;;;;;;;2.03;1.25;;;;;;;;;;4964496;28;20038;-80
2022/03/31 05:46:46;;;;;;;1.40;1.17;;;;;;;;;;4965335;28;20053;-83
2022/03/31 05:49:11;;;;;;;1.92;1.40;;;;;;;;;;4964674;28;20146;-83
2022/03/31 05:51:37;;;;;;;1.48;1.10;;;;;;;;;;4965100;28;20113;-80
2022/03/31 05:54:03;;;;;;;2.25;1.40;;;;;;;;;;4967286;28;20058;-83
2022/03/31 05:56:29;;;;;;;2.35;1.40;;;;;;;;;;4965183;28;20071;-83
2022/03/31 05:58:54;;;;;;;2.65;1.60;;;;;;;;;;4970083;28;20026;-81
2022/03/31 06:01:20;;;;;;;1.90;1.30;;;;;;;;;;4960915;28;20031;-83
2022/03/31 06:03:45;;;;;;;2.47;1.60;;;;;;;;;;4958473;28;20038;-82
2022/03/31 06:06:10;;;;;;;2.28;1.50;;;;;;;;;;4960117;28;20039;-82
2022/03/31 06:08:36;;;;;;;2.90;1.40;;;;;;;;;;4967576;28;20038;-83
2022/03/31 06:11:01;;;;;;;2.92;1.60;;;;;;;;;;4972310;28;20462;-82
2022/03/31 06:13:26;;;;;;;2.97;1.70;;;;;;;;;;4966408;28;20814;-81
2022/03/31 06:15:52;;;;;;;3.22;1.55;;;;;;;;;;4972913;28;20113;-83
2022/03/31 06:18:18;;;;;;;2.30;1.60;;;;;;;;;;4973816;28;20034;-81
2022/03/31 06:20:44;;;;;;;2.95;1.70;;;;;;;;;;4997320;28;20037;-81
2022/03/31 06:23:09;;;;;;;2.22;1.60;;;;;;;;;;4976838;28;20027;-82
2022/03/31 06:25:34;;;;;;;2.47;1.73;;;;;;;;;;4966344;28;20085;-84
2022/03/31 06:28:00;;;;;;;2.53;1.67;;;;;;;;;;4977967;28;20062;-81
2022/03/31 06:30:25;;;;;;;2.35;1.63;;;;;;;;;;4974672;28;20030;-83
2022/03/31 06:32:51;;;;;;;2.40;1.73;;;;;;;;;;4969184;28;20538;-83
2022/03/31 06:35:16;;;;;;;4.28;1.75;;;;;;;;;;4970620;28;20019;-81
2022/03/31 06:37:46;;;;;;;2.60;1.80;;;;;;;;;;4970649;28;20052;-82
2022/03/31 06:40:13;;;;;;;3.13;1.60;;;;;;;;;;4971818;28;20039;-82
2022/03/31 06:42:40;;;;;;;2.58;1.70;;;;;;;;;;4970806;28;20436;-82
2022/03/31 06:45:08;;;;;;;2.67;1.73;;;;;;;;;;4967007;28;20097;-83
2022/03/31 06:47:35;;;;;;;2.83;1.55;;;;;;;;;;4965385;28;20026;-82
2022/03/31 06:50:00;;;;;;;2.20;1.40;;;;;;;;;;4960637;28;20062;-82
2022/03/31 06:52:25;;;;;;;2.80;1.50;;;;;;;;;;4972343;28;20050;-82
2022/03/31 06:54:51;;;;;;;2.22;1.60;;;;;;;;;;4975089;28;20141;-81
2022/03/31 06:57:16;;;;;;;2.60;1.60;;;;;;;;;;4972212;28;20490;-81
2022/03/31 06:59:41;;;;;;;1.98;1.40;;;;;;;;;;4971454;28;20038;-82
2022/03/31 07:02:08;;;;;;;3.22;1.42;;;;;;;;;;4965689;28;20121;-83
2022/03/31 07:04:33;;;;;;;2.05;1.50;;;;;;;;;;4963885;28;20122;-81
2022/03/31 07:06:58;;;;;;;2.20;1.30;;;;;;;;;;4968721;28;20428;-82
2022/03/31 07:09:24;;;;;;;2.67;1.55;;;;;;;;;;4971539;28;20113;-81
2022/03/31 07:11:49;;;;;;;2.08;1.40;;;;;;;;;;4969507;28;20042;-82
2022/03/31 07:14:14;;;;;;;2.13;1.30;;;;;;;;;;4974395;28;20026;-83
2022/03/31 07:16:40;;;;;;;1.90;1.38;;;;;;;;;;4970150;28;20483;-81
2022/03/31 07:19:05;;;;;;;1.90;1.30;;;;;;;;;;4971442;28;20030;-80
2022/03/31 07:21:30;;;;;;;2.35;1.40;;;;;;;;;;4978700;28;20022;-83
2022/03/31 07:23:56;;;;;;;2.08;1.40;;;;;;;;;;4967967;28;20086;-82
2022/03/31 07:26:22;;;;;;;1.90;1.30;;;;;;;;;;4973988;28;20057;-81
2022/03/31 07:28:48;;;;;;;2.20;1.52;;;;;;;;;;4979865;28;20037;-82
2022/03/31 07:31:14;;;;;;;2.25;1.60;;;;;;;;;;4964390;28;20106;-81
2022/03/31 07:33:40;;;;;;;3.08;1.70;;;;;;;;;;4976179;28;20558;-81
2022/03/31 07:36:07;;;;;;;5.32;1.70;;;;;;;;;;4973216;28;20514;-82
2022/03/31 07:38:33;;;;;;;2.75;1.70;;;;;;;;;;4976007;28;20037;-80
2022/03/31 07:40:58;;;;;;;2.55;1.75;;;;;;;;;;4973628;28;20022;-82
2022/03/31 07:43:24;;;;;;;3.05;2.05;;;;;;;;;;4971902;28;20030;-82
2022/03/31 07:45:50;;;;;;;3.30;1.88;;;;;;;;;;4978805;28;20027;-80
2022/03/31 07:48:17;;;;;;;3.33;1.90;;;;;;;;;;4973842;28;20034;-81
2022/03/31 07:50:43;;;;;;;2.55;1.70;;;;;;;;;;4972036;28;20019;-82
2022/03/31 07:53:10;;;;;;;3.63;1.90;;;;;;;;;;4972190;28;20517;-82
2022/03/31 07:55:36;;;;;;;3.10;1.83;;;;;;;;;;4976011;28;20022;-80
2022/03/31 07:58:02;;;;;;;3.22;1.90;;;;;;;;;;4968638;28;20391;-81
2022/03/31 08:00:28;;;;;;;2.80;1.75;;;;;;;;;;4971023;28;20034;-81
2022/03/31 08:02:53;;;;;;;3.92;1.85;;;;;;;;;;4964225;28;20030;-81
2022/03/31 08:05:24;;;;;;;3.05;1.80;;;;;;;;;;4968044;28;20122;-82
2022/03/31 08:07:50;;;;;;;2.92;1.65;;;;;;;;;;4971771;28;20037;-80
2022/03/31 08:10:17;;;;;;;3.25;1.85;;;;;;;;;;4966250;28;20435;-81
2022/03/31 08:12:44;;;;;;;2.75;1.55;;;;;;;;;;4968135;28;20031;-82
2022/03/31 08:15:10;;;;;;;2.95;1.70;;;;;;;;;;4967034;28;20368;-82
2022/03/31 08:17:38;;;;;;;3.60;1.90;;;;;;;;;;4969833;28;20030;-82
2022/03/31 08:20:13;;;;;;;2.35;1.65;;;;;;;;;;4975076;28;20026;-82
2022/03/31 08:22:39;;;;;;;3.55;1.88;;;;;;;;;;4975082;28;20024;-81
2022/03/31 08:25:06;;;;;;;2.25;1.60;;;;;;;;;;4965145;28;20054;-82
2022/03/31 08:27:32;;;;;;;2.97;1.70;;;;;;;;;;4971237;28;20023;-81
2022/03/31 08:29:58;;;;;;;2.75;1.95;;;;;;;;;;4972307;28;20036;-82
2022/03/31 08:32:24;;;;;;;3.42;1.83;;;;;;;;;;4973785;28;21309;-81
2022/03/31 08:34:49;;;;;;;2.78;1.95;;;;;;;;;;4964288;28;20027;-83
2022/03/31 08:37:15;;;;;;;3.03;1.80;;;;;;;;;;4969235;28;20034;-82
2022/03/31 08:39:40;;;;;;;2.88;1.73;;;;;;;;;;4968313;28;20039;-82
2022/03/31 08:42:10;;;;;;;4.05;1.80;;;;;;;;;;4971009;28;20033;-82
2022/03/31 08:44:36;;;;;;;3.45;2.13;;;;;;;;;;4970468;28;20041;-82
2022/03/31 08:47:02;;;;;;;2.85;1.75;;;;;;;;;;4970776;28;20038;-82
2022/03/31 08:49:29;;;;;;;4.43;2.13;;;;;;;;;;4969756;28;20033;-82
2022/03/31 08:51:55;;;;;;;4.05;2.00;;;;;;;;;;4979468;28;20483;-82
2022/03/31 08:54:20;;;;;;;4.68;2.20;;;;;;;;;;4971635;28;20081;-83
2022/03/31 08:56:46;;;;;;;4.13;2.30;;;;;;;;;;4973000;28;20027;-82
2022/03/31 08:59:11;;;;;;;2.90;1.90;;;;;;;;;;4977089;28;20026;-82
2022/03/31 09:01:40;;;;;;;3.40;2.10;;;;;;;;;;4970159;28;20026;-82
2022/03/31 09:04:06;;;;;;;3.67;2.13;;;;;;;;;;4963194;28;20390;-81
2022/03/31 09:06:31;;;;;;;2.97;1.95;;;;;;;;;;4973916;28;20474;-82
2022/03/31 09:08:59;;;;;;;3.30;2.00;;;;;;;;;;4973494;28;20041;-82
2022/03/31 09:11:29;;;;;;;3.90;2.00;;;;;;;;;;4970993;28;20026;-82
2022/03/31 09:13:59;;;;;;;3.58;2.20;;;;;;;;;;4972558;28;20081;-83
2022/03/31 09:16:36;;;;;;;3.88;2.40;;;;;;;;;;4979889;28;20058;-82
2022/03/31 09:19:05;;;;;;;2.85;1.88;;;;;;;;;;4977174;28;20033;-82
2022/03/31 09:21:31;;;;;;;2.95;2.13;;;;;;;;;;4974109;28;20441;-81
2022/03/31 09:23:58;;;;;;;3.17;2.15;;;;;;;;;;4978595;28;20055;-82
2022/03/31 09:26:27;;;;;;;3.22;2.15;;;;;;;;;;4974769;28;20037;-82
2022/03/31 09:28:54;;;;;;;3.15;2.00;;;;;;;;;;4974627;28;20034;-82
2022/03/31 09:31:24;;;;;;;2.58;1.85;;;;;;;;;;4975710;28;20034;-83
2022/03/31 09:33:57;;;;;;;3.00;2.00;;;;;;;;;;4972601;28;20030;-82
2022/03/31 09:36:23;;;;;;;;;;;;;;;;;;4977407;28;20034;-82
2022/03/31 09:38:58;;;;;;;4.70;1.83;;;;;;;;;;4979005;28;19914;-83
2022/03/31 09:41:35;;;;;;;2.95;2.10;;;;;;;;;;4974543;28;20403;-82
2022/03/31 09:44:06;;;;;;;2.63;1.98;;;;;;;;;;4974913;28;20062;-83
2022/03/31 09:46:39;;;;;;;3.80;2.25;;;;;;;;;;4976633;28;20038;-81
2022/03/31 09:49:25;;;;;;;2.65;1.88;;;;;;;;;;4980821;28;20371;-82
2022/03/31 09:51:52;;;;;;;3.30;2.17;;;;;;;;;;4977023;28;20034;-83
2022/03/31 09:54:18;;;;;;;4.10;2.40;;;;;;;;;;4976049;28;20034;-84
2022/03/31 09:56:44;;;;;;;2.90;2.00;;;;;;;;;;4982234;28;20367;-82
2022/03/31 09:59:14;;;;;;;3.05;2.05;;;;;;;;;;4976995;28;20037;-83
2022/03/31 10:01:41;;;;;;;3.13;2.25;;;;;;;;;;4993500;28;20034;-80
2022/03/31 10:04:07;;;;;;;2.90;1.83;;;;;;;;;;4974857;28;20030;-80
2022/03/31 10:06:38;;;;;;;2.88;1.83;;;;;;;;;;4978284;28;20041;-83
2022/03/31 10:09:05;;;;;;;3.20;2.15;;;;;;;;;;4977348;28;20030;-81
2022/03/31 10:11:34;;;;;;;3.17;2.22;;;;;;;;;;4971570;28;20038;-82
2022/03/31 10:14:18;;;;;;;3.33;2.28;;;;;;;;;;4983226;28;20099;-79
2022/03/31 10:16:47;;;;;;;3.67;2.20;;;;;;;;;;4974560;28;20031;-80
2022/03/31 10:19:26;;;;;;;2.80;2.08;;;;;;;;;;4973801;28;20019;-81
2022/03/31 10:22:03;;;;;;;3.05;2.25;;;;;;;;;;4970753;28;20157;-82
2022/03/31 10:24:46;;;;;;;3.40;2.20;;;;;;;;;;4980758;28;20066;-81
2022/03/31 10:27:32;;;;;;;2.88;2.08;;;;;;;;;;4978780;28;20030;-83
2022/03/31 10:30:26;;;;;;;3.05;2.10;;;;;;;;;;4974009;28;20033;-83
2022/03/31 10:33:03;;;;;;;4.55;2.50;;;;;;;;;;4957276;28;20376;-82
2022/03/31 10:35:35;;;;;;;3.30;2.28;;;;;;;;;;4972020;28;20054;-80
2022/03/31 10:38:23;;;;;;;3.63;2.45;;;;;;;;;;4976544;28;20114;-82
2022/03/31 10:40:59;;;;;;;3.40;2.33;;;;;;;;;;4968037;28;20035;-81
2022/03/31 10:43:31;;;;;;;3.30;2.30;;;;;;;;;;4977133;28;20062;-81
2022/03/31 10:45:58;;;;;;;3.63;2.22;;;;;;;;;;4980116;28;20034;-79
2022/03/31 10:48:24;;;;;;;4.85;2.30;;;;;;;;;;4972668;28;20049;-81
2022/03/31 10:51:06;;;;;;;3.03;2.20;;;;;;;;;;4979434;28;20458;-83
2022/03/31 10:53:35;;;;;;;3.20;2.33;;;;;;;;;;4974516;28;20394;-81
2022/03/31 10:56:02;;;;;;;2.83;2.05;;;;;;;;;;4976920;28;20533;-82
2022/03/31 10:58:30;;;;;;;3.25;2.30;;;;;;;;;;4976207;28;20039;-81
2022/03/31 11:01:00;;;;;;;3.72;2.17;;;;;;;;;;4976223;28;20033;-83
2022/03/31 11:03:26;;;;;;;3.20;2.17;;;;;;;;;;4975805;28;20026;-80
2022/03/31 11:05:52;;;;;;;3.17;2.30;;;;;;;;;;4982831;28;20041;-82
2022/03/31 11:08:18;;;;;;;3.03;2.30;;;;;;;;;;4978391;28;20030;-82
2022/03/31 11:10:49;;;;;;;3.38;2.40;;;;;;;;;;4975358;28;20448;-81
2022/03/31 11:13:16;;;;;;;3.08;2.15;;;;;;;;;;4967994;28;20030;-80
2022/03/31 11:15:44;;;;;;;3.20;2.33;;;;;;;;;;4971209;28;20080;-80
2022/03/31 11:18:10;;;;;;;3.13;2.28;;;;;;;;;;4975318;28;20127;-82
2022/03/31 11:20:35;;;;;;;3.67;2.58;;;;;;;;;;4977439;28;20038;-81
2022/03/31 11:23:06;;;;;;;3.45;2.50;;;;;;;;;;4971191;28;20039;-81
2022/03/31 11:25:33;;;;;;;4.03;2.58;;;;;;;;;;4976755;28;20502;-81
2022/03/31 11:28:07;;;;;;;3.35;2.50;;;;;;;;;;4967257;28;20027;-83
2022/03/31 11:30:32;;;;;;;3.58;2.45;;;;;;;;;;4969222;28;20095;-81
2022/03/31 11:32:58;;;;;;;3.83;2.67;;;;;;;;;;4987020;28;20027;-81
2022/03/31 11:35:28;;;;;;;3.45;2.50;;;;;;;;;;4967950;28;20026;-82
2022/03/31 11:38:00;;;;;;;3.80;2.38;;;;;;;;;;4974625;28;20052;-80
2022/03/31 11:40:52;;;;;;;3.60;2.38;;;;;;;;;;4970615;28;20073;-81
2022/03/31 11:43:19;;;;;;;3.33;2.42;;;;;;;;;;4970373;28;20038;-82
2022/03/31 11:45:48;;;;;;;3.15;2.28;;;;;;;;;;4972099;28;20395;-81
2022/03/31 11:48:19;;;;;;;3.35;2.50;;;;;;;;;;4963437;28;20482;-80
2022/03/31 11:50:51;;;;;;;3.20;2.40;;;;;;;;;;4981154;28;20030;-82
2022/03/31 11:53:18;;;;;;;3.30;2.42;;;;;;;;;;4976211;28;20050;-79
2022/03/31 11:55:54;;;;;;;3.83;2.63;;;;;;;;;;4980637;28;20115;-83
2022/03/31 11:58:20;;;;;;;3.78;2.72;;;;;;;;;;4964811;28;20027;-82
2022/03/31 12:00:49;;;;;;;3.53;2.55;;;;;;;;;;4972768;28;20030;-81
2022/03/31 12:03:16;;;;;;;4.15;2.70;;;;;;;;;;4963735;28;20042;-82
2022/03/31 12:05:41;;;;;;;3.45;2.50;;;;;;;;;;4976163;28;20027;-82
2022/03/31 12:08:07;;;;;;;3.53;2.65;;;;;;;;;;4975677;28;20041;-81
2022/03/31 12:10:33;;;;;;;5.63;2.60;;;;;;;;;;4971176;28;20479;-81
2022/03/31 12:13:00;;;;;;;4.00;2.65;;;;;;;;;;4967037;28;20038;-81
2022/03/31 12:15:29;;;;;;;3.70;2.78;;;;;;;;;;4974882;28;20030;-81
2022/03/31 12:18:06;;;;;;;3.90;2.80;;;;;;;;;;4970795;28;20126;-81
2022/03/31 12:20:34;;;;;;;3.50;2.58;;;;;;;;;;4972945;28;20451;-81
2022/03/31 12:23:00;;;;;;;4.57;2.67;;;;;;;;;;4973176;28;20063;-81
2022/03/31 12:25:31;;;;;;;3.72;2.60;;;;;;;;;;4977820;28;20050;-81
2022/03/31 12:27:58;;;;;;;3.17;2.30;;;;;;;;;;4971644;28;20124;-81
2022/03/31 12:30:24;;;;;;;3.63;2.53;;;;;;;;;;4958845;28;20019;-82
2022/03/31 12:32:49;;;;;;;3.22;2.30;;;;;;;;;;4976381;28;20034;-80
2022/03/31 12:35:15;;;;;;;3.80;2.50;;;;;;;;;;4972126;28;20065;-81
2022/03/31 12:37:45;;;;;;;3.00;2.20;;;;;;;;;;4970466;28;20027;-81
2022/03/31 12:40:13;;;;;;;3.10;2.30;;;;;;;;;;4973136;28;20046;-82
2022/03/31 12:42:53;;;;;;;3.63;2.53;;;;;;;;;;4971920;28;20128;-82
2022/03/31 12:45:19;;;;;;;3.40;2.40;;;;;;;;;;4974521;28;20031;-80
2022/03/31 12:47:47;;;;;;;3.10;2.30;;;;;;;;;;4965048;28;20038;-82
2022/03/31 12:50:20;;;;;;;3.10;2.30;;;;;;;;;;4970314;28;20034;-83
2022/03/31 12:52:52;;;;;;;;;;;;;;;;;;4969832;28;20054;-82
2022/03/31 12:55:18;;;;;;;2.70;2.05;;;;;;;;;;4980425;28;19957;-83
2022/03/31 12:57:54;;;;;;;3.25;1.95;;;;;;;;;;4966803;28;20057;-83
2022/03/31 13:00:19;;;;;;;3.00;2.15;;;;;;;;;;4967350;28;20027;-81
2022/03/31 13:02:45;;;;;;;2.72;2.00;;;;;;;;;;4974540;28;20368;-82
2022/03/31 13:05:10;;;;;;;3.33;1.70;;;;;;;;;;4979874;28;20030;-81
2022/03/31 13:07:35;;;;;;;2.90;1.85;;;;;;;;;;4964764;28;20086;-81
2022/03/31 13:10:06;;;;;;;2.67;1.98;;;;;;;;;;4970422;28;20147;-81
2022/03/31 13:12:32;;;;;;;6.00;1.80;;;;;;;;;;4971115;28;20027;-82
2022/03/31 13:14:58;;;;;;;2.78;2.00;;;;;;;;;;4969411;28;20022;-83
2022/03/31 13:17:23;;;;;;;2.80;1.90;;;;;;;;;;4976633;28;20030;-83
2022/03/31 13:19:51;;;;;;;3.03;1.80;;;;;;;;;;4979721;28;20053;-81
2022/03/31 13:22:24;;;;;;;2.70;1.80;;;;;;;;;;4975100;28;20579;-81
2022/03/31 13:24:51;;;;;;;2.55;2.08;;;;;;;;;;4973926;28;20047;-81
2022/03/31 13:27:16;;;;;;;3.00;2.15;;;;;;;;;;4968986;28;20023;-82
2022/03/31 13:29:42;;;;;;;2.30;1.80;;;;;;;;;;4980520;28;20113;-82
2022/03/31 13:32:07;;;;;;;2.92;1.95;;;;;;;;;;4975475;28;20121;-82
2022/03/31 13:34:35;;;;;;;2.65;1.98;;;;;;;;;;4968286;28;20759;-82
2022/03/31 13:37:05;;;;;;;2.65;1.95;;;;;;;;;;4966467;28;20070;-81
2022/03/31 13:39:34;;;;;;;2.72;1.90;;;;;;;;;;4978987;28;20030;-81
2022/03/31 13:42:00;;;;;;;2.17;1.60;;;;;;;;;;4970837;28;20430;-83
2022/03/31 13:44:26;;;;;;;2.33;1.63;;;;;;;;;;4980401;28;20045;-82
2022/03/31 13:46:55;;;;;;;2.08;1.63;;;;;;;;;;4970372;28;20020;-82
2022/03/31 13:49:22;;;;;;;2.25;1.52;;;;;;;;;;4978274;28;20054;-82
2022/03/31 13:51:47;;;;;;;2.58;1.70;;;;;;;;;;4972437;28;20089;-83
2022/03/31 13:54:15;;;;;;;2.30;1.58;;;;;;;;;;4981093;28;20046;-83
2022/03/31 13:56:43;;;;;;;2.20;1.70;;;;;;;;;;4976197;28;20027;-83
2022/03/31 14:01:55;;;;;;;1.85;1.40;;;;;;;;;;4974740;28;20046;-83
2022/03/31 14:04:21;;;;;;;2.53;1.35;;;;;;;;;;4981136;28;20022;-82
2022/03/31 14:06:49;;;;;;;1.83;1.40;;;;;;;;;;4979993;28;20121;-81
2022/03/31 14:09:16;;;;;;;2.10;1.40;;;;;;;;;;4977988;28;20058;-82
2022/03/31 14:11:42;;;;;;;1.70;1.35;;;;;;;;;;4978563;28;20105;-83
2022/03/31 14:14:10;;;;;;;3.15;1.50;;;;;;;;;;4983127;28;20109;-83
2022/03/31 14:16:37;;;;;;;2.13;1.48;;;;;;;;;;4973732;28;20402;-80
2022/03/31 14:19:04;;;;;;;1.80;1.40;;;;;;;;;;4983821;28;20037;-83
2022/03/31 14:21:29;;;;;;;1.70;1.30;;;;;;;;;;4975474;28;20038;-83
2022/03/31 14:23:55;;;;;;;1.90;1.27;;;;;;;;;;4974116;28;20047;-81
2022/03/31 14:26:22;;;;;;;1.88;1.48;;;;;;;;;;4974280;28;20447;-81
2022/03/31 14:28:49;;;;;;;1.60;1.40;;;;;;;;;;4979406;28;20030;-83
2022/03/31 14:31:18;;;;;;;1.88;1.30;;;;;;;;;;4970824;28;20653;-82
2022/03/31 14:33:44;;;;;;;2.00;1.30;;;;;;;;;;4979317;28;20027;-82
2022/03/31 14:36:09;;;;;;;2.13;1.50;;;;;;;;;;4972121;28;20031;-82
2022/03/31 14:38:36;;;;;;;1.65;1.33;;;;;;;;;;4968989;28;20041;-83
2022/03/31 14:41:09;;;;;;;1.85;1.40;;;;;;;;;;4968221;28;20049;-85
2022/03/31 14:43:45;;;;;;;1.95;1.30;;;;;;;;;;4972124;28;20106;-82
2022/03/31 14:46:14;;;;;;;1.90;1.30;;;;;;;;;;4965815;28;20038;-87
2022/03/31 14:48:40;;;;;;;1.50;1.17;;;;;;;;;;4965676;28;20027;-84
2022/03/31 14:51:09;;;;;;;2.53;1.60;;;;;;;;;;4973244;28;20696;-84
2022/03/31 14:53:35;;;;;;;2.15;1.60;;;;;;;;;;4972877;28;20057;-84
2022/03/31 14:56:01;;;;;;;2.30;1.60;;;;;;;;;;4978790;28;20095;-82
2022/03/31 14:58:27;;;;;;;2.05;1.60;;;;;;;;;;4981856;28;20658;-83
2022/03/31 15:00:52;;;;;;;2.38;1.40;;;;;;;;;;4970445;28;20061;-87
2022/03/31 15:03:18;;;;;;;1.92;1.45;;;;;;;;;;4978676;28;20478;-86